sensor_id;sensor_type;location;lat;lon;timestamp;pressure;altitude;pressure_sealevel;temperature;humidity
13952;BME280;39535;52.192;9.886;2023-05-24T00:00:57;101117.19;;;6.74;95.80
13952;BME280;39535;52.192;9.886;2023-05-24T00:03:24;101118.00;;;6.70;96.27
13952;BME280;39535;52.192;9.886;2023-05-24T00:05:50;101125.81;;;6.72;95.54
13952;BME280;39535;52.192;9.886;2023-05-24T00:08:17;101141.38;;;6.75;95.41
13952;BME280;39535;52.192;9.886;2023-05-24T00:10:44;101140.47;;;6.68;95.92
13952;BME280;39535;52.192;9.886;2023-05-24T00:13:10;101131.84;;;6.71;95.22
13952;BME280;39535;52.192;9.886;2023-05-24T00:15:37;101116.31;;;6.77;97.00
13952;BME280;39535;52.192;9.886;2023-05-24T00:18:03;101112.03;;;6.81;98.00
13952;BME280;39535;52.192;9.886;2023-05-24T00:20:30;101105.97;;;6.79;97.19
13952;BME280;39535;52.192;9.886;2023-05-24T00:22:56;101103.38;;;6.80;96.40
13952;BME280;39535;52.192;9.886;2023-05-24T00:25:23;101119.81;;;6.81;95.85
13952;BME280;39535;52.192;9.886;2023-05-24T00:27:50;101133.72;;;6.86;94.72
13952;BME280;39535;52.192;9.886;2023-05-24T00:30:17;101147.56;;;6.89;95.16
13952;BME280;39535;52.192;9.886;2023-05-24T00:32:43;101137.13;;;6.80;95.57
13952;BME280;39535;52.192;9.886;2023-05-24T00:35:09;101132.78;;;6.76;96.21
13952;BME280;39535;52.192;9.886;2023-05-24T00:37:36;101124.13;;;6.79;96.26
13952;BME280;39535;52.192;9.886;2023-05-24T00:40:07;101116.31;;;6.74;96.58
13952;BME280;39535;52.192;9.886;2023-05-24T00:42:34;101107.66;;;6.72;97.42
13952;BME280;39535;52.192;9.886;2023-05-24T00:45:01;101095.59;;;6.82;97.30
13952;BME280;39535;52.192;9.886;2023-05-24T00:47:28;101091.31;;;6.87;97.25
13952;BME280;39535;52.192;9.886;2023-05-24T00:49:54;101093.97;;;6.97;97.65
13952;BME280;39535;52.192;9.886;2023-05-24T00:52:21;101093.19;;;7.09;96.76
13952;BME280;39535;52.192;9.886;2023-05-24T00:54:48;101104.38;;;6.96;96.10
13952;BME280;39535;52.192;9.886;2023-05-24T00:57:15;101104.38;;;6.96;96.58
13952;BME280;39535;52.192;9.886;2023-05-24T00:59:43;101090.47;;;6.89;97.97
13952;BME280;39535;52.192;9.886;2023-05-24T01:02:11;101087.00;;;6.89;98.06
13952;BME280;39535;52.192;9.886;2023-05-24T01:04:37;101070.59;;;6.94;98.99
13952;BME280;39535;52.192;9.886;2023-05-24T01:07:11;101068.84;;;6.90;98.19
13952;BME280;39535;52.192;9.886;2023-05-24T01:09:49;101068.88;;;7.00;99.03
13952;BME280;39535;52.192;9.886;2023-05-24T01:12:25;101067.16;;;6.94;98.55
13952;BME280;39535;52.192;9.886;2023-05-24T01:14:59;101058.56;;;7.06;99.23
13952;BME280;39535;52.192;9.886;2023-05-24T01:17:35;101069.81;;;7.06;97.22
13952;BME280;39535;52.192;9.886;2023-05-24T01:20:08;101078.38;;;6.93;97.85
13952;BME280;39535;52.192;9.886;2023-05-24T01:22:47;101060.22;;;6.94;99.08
13952;BME280;39535;52.192;9.886;2023-05-24T01:25:26;101062.00;;;7.02;98.28
13952;BME280;39535;52.192;9.886;2023-05-24T01:27:55;101062.06;;;7.12;98.50
13952;BME280;39535;52.192;9.886;2023-05-24T01:30:24;101068.09;;;7.13;97.68
13952;BME280;39535;52.192;9.886;2023-05-24T01:32:51;101065.44;;;6.99;97.77
13952;BME280;39535;52.192;9.886;2023-05-24T01:35:18;101062.00;;;7.03;98.20
13952;BME280;39535;52.192;9.886;2023-05-24T01:37:44;101057.66;;;6.99;98.75
13952;BME280;39535;52.192;9.886;2023-05-24T01:40:11;101050.72;;;6.98;98.49
13952;BME280;39535;52.192;9.886;2023-05-24T01:42:44;101050.72;;;7.00;99.87
13952;BME280;39535;52.192;9.886;2023-05-24T01:45:16;101042.97;;;7.03;99.85
13952;BME280;39535;52.192;9.886;2023-05-24T01:47:54;101036.06;;;7.05;99.55
13952;BME280;39535;52.192;9.886;2023-05-24T01:50:25;101035.22;;;7.15;99.71
13952;BME280;39535;52.192;9.886;2023-05-24T01:52:53;101041.25;;;7.09;98.79
13952;BME280;39535;52.192;9.886;2023-05-24T01:55:24;101041.25;;;7.09;99.50
13952;BME280;39535;52.192;9.886;2023-05-24T01:57:53;101040.38;;;7.04;99.32
13952;BME280;39535;52.192;9.886;2023-05-24T02:00:25;101034.31;;;7.02;100.00
13952;BME280;39535;52.192;9.886;2023-05-24T02:02:51;101017.91;;;7.09;100.00
13952;BME280;39535;52.192;9.886;2023-05-24T02:05:18;101017.88;;;7.05;100.00
13952;BME280;39535;52.192;9.886;2023-05-24T02:07:44;101001.47;;;7.06;100.00
13952;BME280;39535;52.192;9.886;2023-05-24T02:10:11;100989.31;;;7.03;100.00
13952;BME280;39535;52.192;9.886;2023-05-24T02:12:37;100972.91;;;7.06;100.00
13952;BME280;39535;52.192;9.886;2023-05-24T02:15:04;100965.09;;;7.01;100.00
13952;BME280;39535;52.192;9.886;2023-05-24T02:17:32;100944.31;;;7.01;100.00
13952;BME280;39535;52.192;9.886;2023-05-24T02:19:59;100949.50;;;6.98;100.00
13952;BME280;39535;52.192;9.886;2023-05-24T02:22:26;100945.16;;;6.97;100.00
13952;BME280;39535;52.192;9.886;2023-05-24T02:24:53;100939.94;;;6.89;100.00
13952;BME280;39535;52.192;9.886;2023-05-24T02:27:19;100933.91;;;6.90;100.00
13952;BME280;39535;52.192;9.886;2023-05-24T02:29:46;100933.06;;;6.90;100.00
13952;BME280;39535;52.192;9.886;2023-05-24T02:32:12;100919.13;;;6.75;100.00
13952;BME280;39535;52.192;9.886;2023-05-24T02:34:40;100911.34;;;6.72;100.00
13952;BME280;39535;52.192;9.886;2023-05-24T02:37:08;100900.06;;;6.67;100.00
13952;BME280;39535;52.192;9.886;2023-05-24T02:39:38;100899.19;;;6.61;100.00
13952;BME280;39535;52.192;9.886;2023-05-24T02:42:05;100889.66;;;6.58;100.00
13952;BME280;39535;52.192;9.886;2023-05-24T02:44:32;100883.59;;;6.57;100.00
13952;BME280;39535;52.192;9.886;2023-05-24T02:46:59;100873.19;;;6.51;100.00
13952;BME280;39535;52.192;9.886;2023-05-24T02:49:25;100874.91;;;6.49;100.00
13952;BME280;39535;52.192;9.886;2023-05-24T02:51:53;100868.81;;;6.41;100.00
13952;BME280;39535;52.192;9.886;2023-05-24T02:54:19;100864.50;;;6.39;100.00
13952;BME280;39535;52.192;9.886;2023-05-24T02:56:45;100859.31;;;6.37;100.00
13952;BME280;39535;52.192;9.886;2023-05-24T02:59:12;100858.41;;;6.33;100.00
13952;BME280;39535;52.192;9.886;2023-05-24T03:01:38;100859.31;;;6.39;100.00
13952;BME280;39535;52.192;9.886;2023-05-24T03:04:04;100858.41;;;6.32;100.00
13952;BME280;39535;52.192;9.886;2023-05-24T03:06:31;100865.31;;;6.30;100.00
13952;BME280;39535;52.192;9.886;2023-05-24T03:08:59;100867.94;;;6.39;100.00
13952;BME280;39535;52.192;9.886;2023-05-24T03:11:25;100875.75;;;6.41;100.00
13952;BME280;39535;52.192;9.886;2023-05-24T03:13:51;100875.75;;;6.42;100.00
13952;BME280;39535;52.192;9.886;2023-05-24T03:16:17;100877.53;;;6.52;100.00
13952;BME280;39535;52.192;9.886;2023-05-24T03:18:45;100881.91;;;6.63;100.00
13952;BME280;39535;52.192;9.886;2023-05-24T03:21:11;100893.16;;;6.68;100.00
13952;BME280;39535;52.192;9.886;2023-05-24T03:23:38;100897.47;;;6.66;100.00
13952;BME280;39535;52.192;9.886;2023-05-24T03:26:06;100903.53;;;6.66;100.00
13952;BME280;39535;52.192;9.886;2023-05-24T03:28:32;100907.91;;;6.81;100.00
13952;BME280;39535;52.192;9.886;2023-05-24T03:30:59;100917.41;;;6.76;100.00
13952;BME280;39535;52.192;9.886;2023-05-24T03:33:26;100912.22;;;6.78;100.00
13952;BME280;39535;52.192;9.886;2023-05-24T03:35:52;100912.19;;;6.68;100.00
13952;BME280;39535;52.192;9.886;2023-05-24T03:38:18;100913.03;;;6.63;100.00
13952;BME280;39535;52.192;9.886;2023-05-24T03:40:45;100903.50;;;6.63;100.00
13952;BME280;39535;52.192;9.886;2023-05-24T03:43:12;100897.44;;;6.56;100.00
13952;BME280;39535;52.192;9.886;2023-05-24T03:45:39;100897.44;;;6.58;100.00
13952;BME280;39535;52.192;9.886;2023-05-24T03:48:05;100886.22;;;6.65;100.00
13952;BME280;39535;52.192;9.886;2023-05-24T03:50:32;100896.63;;;6.73;100.00
13952;BME280;39535;52.192;9.886;2023-05-24T03:52:58;100897.50;;;6.73;100.00
13952;BME280;39535;52.192;9.886;2023-05-24T03:55:25;100906.19;;;6.83;100.00
13952;BME280;39535;52.192;9.886;2023-05-24T03:57:51;100911.44;;;6.97;100.00
13952;BME280;39535;52.192;9.886;2023-05-24T04:00:19;100918.34;;;6.96;100.00
13952;BME280;39535;52.192;9.886;2023-05-24T04:02:46;100932.16;;;6.85;100.00
13952;BME280;39535;52.192;9.886;2023-05-24T04:05:12;100929.59;;;6.94;100.00
13952;BME280;39535;52.192;9.886;2023-05-24T04:07:39;100938.31;;;7.08;100.00
13952;BME280;39535;52.192;9.886;2023-05-24T04:10:07;100953.06;;;7.22;100.00
13952;BME280;39535;52.192;9.886;2023-05-24T04:12:33;100972.09;;;7.25;100.00
13952;BME280;39535;52.192;9.886;2023-05-24T04:15:00;100983.34;;;7.24;100.00
13952;BME280;39535;52.192;9.886;2023-05-24T04:17:28;100981.59;;;7.23;100.00
13952;BME280;39535;52.192;9.886;2023-05-24T04:19:58;100988.53;;;7.20;100.00
13952;BME280;39535;52.192;9.886;2023-05-24T04:22:25;100991.13;;;7.24;100.00
13952;BME280;39535;52.192;9.886;2023-05-24T04:24:51;100992.03;;;7.31;100.00
13952;BME280;39535;52.192;9.886;2023-05-24T04:27:17;101002.38;;;7.20;100.00
13952;BME280;39535;52.192;9.886;2023-05-24T04:29:44;100988.53;;;7.23;100.00
13952;BME280;39535;52.192;9.886;2023-05-24T04:32:14;100977.31;;;7.30;100.00
13952;BME280;39535;52.192;9.886;2023-05-24T04:34:41;100986.00;;;7.33;100.00
13952;BME280;39535;52.192;9.886;2023-05-24T04:37:08;100979.06;;;7.35;100.00
13952;BME280;39535;52.192;9.886;2023-05-24T04:39:34;100976.44;;;7.37;100.00
13952;BME280;39535;52.192;9.886;2023-05-24T04:42:01;100966.09;;;7.40;100.00
13952;BME280;39535;52.192;9.886;2023-05-24T04:44:27;100960.94;;;7.49;100.00
13952;BME280;39535;52.192;9.886;2023-05-24T04:46:54;100961.81;;;7.59;100.00
13952;BME280;39535;52.192;9.886;2023-05-24T04:49:20;100965.28;;;7.67;100.00
13952;BME280;39535;52.192;9.886;2023-05-24T04:51:48;100966.16;;;7.68;100.00
13952;BME280;39535;52.192;9.886;2023-05-24T04:54:14;100976.56;;;7.82;100.00
13952;BME280;39535;52.192;9.886;2023-05-24T04:56:42;100999.94;;;7.82;100.00
13952;BME280;39535;52.192;9.886;2023-05-24T04:59:08;101009.50;;;8.01;100.00
13952;BME280;39535;52.192;9.886;2023-05-24T05:01:35;101020.75;;;8.14;100.00
13952;BME280;39535;52.192;9.886;2023-05-24T05:04:01;101025.13;;;8.15;100.00
13952;BME280;39535;52.192;9.886;2023-05-24T05:06:29;101052.84;;;8.24;100.00
13952;BME280;39535;52.192;9.886;2023-05-24T05:08:57;101068.44;;;8.22;100.00
13952;BME280;39535;52.192;9.886;2023-05-24T05:11:23;101066.72;;;8.38;100.00
13952;BME280;39535;52.192;9.886;2023-05-24T05:13:50;101078.91;;;8.51;100.00
13952;BME280;39535;52.192;9.886;2023-05-24T05:16:16;101095.38;;;8.70;100.00
13952;BME280;39535;52.192;9.886;2023-05-24T05:18:43;101104.03;;;8.74;100.00
13952;BME280;39535;52.192;9.886;2023-05-24T05:21:09;101123.13;;;8.64;100.00
13952;BME280;39535;52.192;9.886;2023-05-24T05:23:35;101143.94;;;8.64;99.85
13952;BME280;39535;52.192;9.886;2023-05-24T05:26:05;101151.78;;;8.76;100.00
13952;BME280;39535;52.192;9.886;2023-05-24T05:28:32;101152.63;;;8.49;100.00
13952;BME280;39535;52.192;9.886;2023-05-24T05:30:58;101143.94;;;8.56;99.85
13952;BME280;39535;52.192;9.886;2023-05-24T05:33:25;101138.75;;;8.47;100.00
13952;BME280;39535;52.192;9.886;2023-05-24T05:35:51;101131.81;;;8.69;100.00
13952;BME280;39535;52.192;9.886;2023-05-24T05:41:42;101140.47;;;8.63;100.00
13952;BME280;39535;52.192;9.886;2023-05-24T05:44:10;101134.44;;;8.78;100.00
13952;BME280;39535;52.192;9.886;2023-05-24T05:46:39;101158.69;;;8.88;98.43
13952;BME280;39535;52.192;9.886;2023-05-24T05:49:08;101158.72;;;8.94;99.10
13952;BME280;39535;52.192;9.886;2023-05-24T05:51:34;101189.09;;;8.92;97.18
13952;BME280;39535;52.192;9.886;2023-05-24T05:54:02;101181.25;;;9.07;97.59
13952;BME280;39535;52.192;9.886;2023-05-24T05:56:29;101183.84;;;9.23;98.24
13952;BME280;39535;52.192;9.886;2023-05-24T05:58:57;101181.22;;;9.33;97.58
13952;BME280;39535;52.192;9.886;2023-05-24T06:01:23;101204.66;;;9.43;96.38
13952;BME280;39535;52.192;9.886;2023-05-24T06:03:50;101240.28;;;9.44;94.39
13952;BME280;39535;52.192;9.886;2023-05-24T06:06:18;101263.72;;;9.47;94.00
13952;BME280;39535;52.192;9.886;2023-05-24T06:08:45;101276.75;;;9.41;93.99
13952;BME280;39535;52.192;9.886;2023-05-24T06:11:11;101274.16;;;9.48;93.87
13952;BME280;39535;52.192;9.886;2023-05-24T06:13:40;101270.66;;;9.60;94.29
13952;BME280;39535;52.192;9.886;2023-05-24T06:16:08;101281.97;;;9.65;93.78
13952;BME280;39535;52.192;9.886;2023-05-24T06:18:34;101293.25;;;9.67;92.84
13952;BME280;39535;52.192;9.886;2023-05-24T06:21:01;101307.16;;;9.62;93.06
13952;BME280;39535;52.192;9.886;2023-05-24T06:23:27;101301.94;;;9.68;92.49
13952;BME280;39535;52.192;9.886;2023-05-24T06:25:54;101308.88;;;9.61;93.44
13952;BME280;39535;52.192;9.886;2023-05-24T06:28:20;101307.16;;;9.69;92.76
13952;BME280;39535;52.192;9.886;2023-05-24T06:30:47;101319.31;;;9.57;91.94
13952;BME280;39535;52.192;9.886;2023-05-24T06:33:15;101320.16;;;9.66;92.65
13952;BME280;39535;52.192;9.886;2023-05-24T06:35:41;101298.44;;;9.61;93.23
13952;BME280;39535;52.192;9.886;2023-05-24T06:38:07;101301.91;;;9.71;92.06
13952;BME280;39535;52.192;9.886;2023-05-24T06:40:35;101323.66;;;9.79;92.30
13952;BME280;39535;52.192;9.886;2023-05-24T06:43:02;101325.38;;;9.80;91.35
13952;BME280;39535;52.192;9.886;2023-05-24T06:45:28;101327.94;;;9.99;91.10
13952;BME280;39535;52.192;9.886;2023-05-24T06:47:55;101330.56;;;10.03;90.97
13952;BME280;39535;52.192;9.886;2023-05-24T06:50:23;101348.78;;;10.12;89.04
13952;BME280;39535;52.192;9.886;2023-05-24T06:52:49;101391.38;;;10.22;87.92
13952;BME280;39535;52.192;9.886;2023-05-24T06:55:16;101395.72;;;10.20;88.20
13952;BME280;39535;52.192;9.886;2023-05-24T06:57:42;101399.19;;;10.24;89.04
13952;BME280;39535;52.192;9.886;2023-05-24T07:00:09;101403.56;;;10.31;88.76
13952;BME280;39535;52.192;9.886;2023-05-24T07:02:36;101431.41;;;10.23;87.00
13952;BME280;39535;52.192;9.886;2023-05-24T07:05:03;101454.00;;;10.10;87.28
13952;BME280;39535;52.192;9.886;2023-05-24T07:07:31;101457.47;;;10.17;86.94
13952;BME280;39535;52.192;9.886;2023-05-24T07:09:58;101452.28;;;10.35;87.97
13952;BME280;39535;52.192;9.886;2023-05-24T07:12:24;101444.44;;;10.49;87.78
13952;BME280;39535;52.192;9.886;2023-05-24T07:14:50;101463.56;;;10.43;85.31
13952;BME280;39535;52.192;9.886;2023-05-24T07:17:17;101473.13;;;10.47;85.41
13952;BME280;39535;52.192;9.886;2023-05-24T07:19:43;101494.00;;;10.46;85.63
13952;BME280;39535;52.192;9.886;2023-05-24T07:22:10;101471.38;;;10.57;85.71
13952;BME280;39535;52.192;9.886;2023-05-24T07:24:38;101471.38;;;10.57;86.06
13952;BME280;39535;52.192;9.886;2023-05-24T07:27:04;101474.84;;;10.56;85.27
13952;BME280;39535;52.192;9.886;2023-05-24T07:29:30;101507.03;;;10.60;84.25
13952;BME280;39535;52.192;9.886;2023-05-24T07:31:57;101481.75;;;10.74;86.09
13952;BME280;39535;52.192;9.886;2023-05-24T07:34:25;101497.50;;;10.48;85.12
13952;BME280;39535;52.192;9.886;2023-05-24T07:36:52;101499.25;;;10.41;85.48
13952;BME280;39535;52.192;9.886;2023-05-24T07:39:18;101495.75;;;10.45;85.50
13952;BME280;39535;52.192;9.886;2023-05-24T07:41:46;101508.78;;;10.48;84.67
13952;BME280;39535;52.192;9.886;2023-05-24T07:44:12;101514.88;;;10.53;84.70
13952;BME280;39535;52.192;9.886;2023-05-24T07:46:39;101535.75;;;10.67;82.33
13952;BME280;39535;52.192;9.886;2023-05-24T07:49:05;101566.22;;;10.73;80.93
13952;BME280;39535;52.192;9.886;2023-05-24T07:51:31;101586.22;;;10.74;80.81
13952;BME280;39535;52.192;9.886;2023-05-24T07:53:58;101586.22;;;10.91;81.92
13952;BME280;39535;52.192;9.886;2023-05-24T07:56:25;101547.91;;;10.87;84.53
13952;BME280;39535;52.192;9.886;2023-05-24T07:58:52;101532.22;;;10.93;83.84
13952;BME280;39535;52.192;9.886;2023-05-24T08:01:23;101541.81;;;10.82;83.87
13952;BME280;39535;52.192;9.886;2023-05-24T08:03:49;101537.50;;;10.59;83.72
13952;BME280;39535;52.192;9.886;2023-05-24T08:06:16;101525.31;;;10.69;84.16
13952;BME280;39535;52.192;9.886;2023-05-24T08:08:43;101508.75;;;10.79;84.85
13952;BME280;39535;52.192;9.886;2023-05-24T08:11:10;101516.56;;;10.78;83.83
13952;BME280;39535;52.192;9.886;2023-05-24T08:13:36;101533.97;;;10.91;82.40
13952;BME280;39535;52.192;9.886;2023-05-24T08:16:04;101553.97;;;10.93;82.36
13952;BME280;39535;52.192;9.886;2023-05-24T08:18:31;101566.16;;;10.90;81.42
13952;BME280;39535;52.192;9.886;2023-05-24T08:20:57;101584.44;;;11.04;81.25
13952;BME280;39535;52.192;9.886;2023-05-24T08:23:24;101574.00;;;10.90;82.70
13952;BME280;39535;52.192;9.886;2023-05-24T08:25:51;101567.94;;;10.76;82.54
13952;BME280;39535;52.192;9.886;2023-05-24T08:28:17;101575.78;;;10.68;82.25
13952;BME280;39535;52.192;9.886;2023-05-24T08:30:44;101551.41;;;10.73;83.01
13952;BME280;39535;52.192;9.886;2023-05-24T08:33:11;101531.38;;;10.83;84.21
13952;BME280;39535;52.192;9.886;2023-05-24T08:35:38;101506.13;;;10.79;85.63
13952;BME280;39535;52.192;9.886;2023-05-24T08:38:05;101496.50;;;10.97;84.58
13952;BME280;39535;52.192;9.886;2023-05-24T08:40:31;101505.28;;;10.80;82.76
13952;BME280;39535;52.192;9.886;2023-05-24T08:42:59;101519.25;;;10.61;84.11
13952;BME280;39535;52.192;9.886;2023-05-24T08:45:28;101463.53;;;10.62;88.51
13952;BME280;39535;52.192;9.886;2023-05-24T08:47:56;101352.13;;;10.68;92.95
13952;BME280;39535;52.192;9.886;2023-05-24T08:50:24;101264.16;;;10.77;96.65
13952;BME280;39535;52.192;9.886;2023-05-24T08:52:51;101198.84;;;10.77;98.74
13952;BME280;39535;52.192;9.886;2023-05-24T08:55:20;101172.91;;;10.53;100.00
13952;BME280;39535;52.192;9.886;2023-05-24T08:57:47;101144.28;;;10.41;100.00
13952;BME280;39535;52.192;9.886;2023-05-24T09:00:14;101114.63;;;10.50;100.00
13952;BME280;39535;52.192;9.886;2023-05-24T09:02:44;101119.00;;;10.48;100.00
13952;BME280;39535;52.192;9.886;2023-05-24T09:05:12;101128.72;;;10.23;100.00
13952;BME280;39535;52.192;9.886;2023-05-24T09:07:43;101107.94;;;10.06;100.00
13952;BME280;39535;52.192;9.886;2023-05-24T09:10:10;101122.72;;;10.10;100.00
13952;BME280;39535;52.192;9.886;2023-05-24T09:12:38;101145.31;;;10.11;100.00
13952;BME280;39535;52.192;9.886;2023-05-24T09:15:07;101120.94;;;10.10;100.00
13952;BME280;39535;52.192;9.886;2023-05-24T09:17:34;101109.69;;;10.05;100.00
13952;BME280;39535;52.192;9.886;2023-05-24T09:20:02;101107.13;;;9.99;100.00
13952;BME280;39535;52.192;9.886;2023-05-24T09:22:31;101093.97;;;10.14;100.00
13952;BME280;39535;52.192;9.886;2023-05-24T09:24:59;101104.34;;;10.33;100.00
13952;BME280;39535;52.192;9.886;2023-05-24T09:27:26;101109.56;;;10.30;100.00
13952;BME280;39535;52.192;9.886;2023-05-24T09:29:54;101120.91;;;10.21;100.00
13952;BME280;39535;52.192;9.886;2023-05-24T09:32:22;101116.72;;;9.96;100.00
13952;BME280;39535;52.192;9.886;2023-05-24T09:34:50;101111.47;;;10.00;100.00
13952;BME280;39535;52.192;9.886;2023-05-24T09:37:19;101090.72;;;9.80;100.00
13952;BME280;39535;52.192;9.886;2023-05-24T09:39:46;101091.50;;;9.94;100.00
13952;BME280;39535;52.192;9.886;2023-05-24T09:42:16;101096.66;;;10.07;100.00
13952;BME280;39535;52.192;9.886;2023-05-24T09:44:45;101101.75;;;10.21;100.00
13952;BME280;39535;52.192;9.886;2023-05-24T09:47:12;101131.31;;;10.27;100.00
13952;BME280;39535;52.192;9.886;2023-05-24T09:49:42;101153.94;;;10.25;100.00
13952;BME280;39535;52.192;9.886;2023-05-24T09:52:12;101152.16;;;10.32;100.00
13952;BME280;39535;52.192;9.886;2023-05-24T09:54:39;101163.41;;;10.42;100.00
13952;BME280;39535;52.192;9.886;2023-05-24T09:57:06;101174.75;;;10.38;100.00
13952;BME280;39535;52.192;9.886;2023-05-24T09:59:34;101170.34;;;10.47;100.00
13952;BME280;39535;52.192;9.886;2023-05-24T10:02:07;101185.81;;;10.75;100.00
13952;BME280;39535;52.192;9.886;2023-05-24T10:04:35;101199.66;;;10.83;99.45
13952;BME280;39535;52.192;9.886;2023-05-24T10:07:02;101210.00;;;10.97;98.80
13952;BME280;39535;52.192;9.886;2023-05-24T10:09:30;101236.38;;;10.60;97.97
13952;BME280;39535;52.192;9.886;2023-05-24T10:12:01;101236.31;;;10.68;97.64
13952;BME280;39535;52.192;9.886;2023-05-24T10:14:30;101245.09;;;10.58;98.41
13952;BME280;39535;52.192;9.886;2023-05-24T10:16:59;101227.88;;;10.18;98.69
13952;BME280;39535;52.192;9.886;2023-05-24T10:19:25;101219.09;;;10.42;99.79
13952;BME280;39535;52.192;9.886;2023-05-24T10:21:52;101199.00;;;10.57;100.00
13952;BME280;39535;52.192;9.886;2023-05-24T10:24:23;101191.97;;;10.66;100.00
13952;BME280;39535;52.192;9.886;2023-05-24T10:26:51;101195.34;;;10.79;99.99
13952;BME280;39535;52.192;9.886;2023-05-24T10:29:26;101215.63;;;10.45;100.00
13952;BME280;39535;52.192;9.886;2023-05-24T10:31:59;101192.06;;;10.51;100.00
13952;BME280;39535;52.192;9.886;2023-05-24T10:34:26;101192.88;;;10.61;100.00
13952;BME280;39535;52.192;9.886;2023-05-24T10:36:55;101214.50;;;10.78;99.60
13952;BME280;39535;52.192;9.886;2023-05-24T10:39:24;101239.69;;;10.87;97.29
13952;BME280;39535;52.192;9.886;2023-05-24T10:41:50;101257.88;;;11.01;96.71
13952;BME280;39535;52.192;9.886;2023-05-24T10:44:18;101277.88;;;11.05;96.49
13952;BME280;39535;52.192;9.886;2023-05-24T10:47:09;101281.53;;;10.82;96.48
13952;BME280;39535;52.192;9.886;2023-05-24T10:49:37;101272.88;;;10.69;97.72
13952;BME280;39535;52.192;9.886;2023-05-24T10:52:07;101285.91;;;10.80;97.07
13952;BME280;39535;52.192;9.886;2023-05-24T10:54:35;101278.06;;;10.80;97.26
13952;BME280;39535;52.192;9.886;2023-05-24T10:57:02;101277.25;;;10.67;97.34
13952;BME280;39535;52.192;9.886;2023-05-24T10:59:32;101249.41;;;10.66;99.14
13952;BME280;39535;52.192;9.886;2023-05-24T11:02:02;101258.94;;;10.73;97.71
13952;BME280;39535;52.192;9.886;2023-05-24T11:04:32;101261.53;;;10.73;98.36
13952;BME280;39535;52.192;9.886;2023-05-24T11:07:03;101265.09;;;10.63;97.75
13952;BME280;39535;52.192;9.886;2023-05-24T11:09:30;101252.84;;;10.75;98.64
13952;BME280;39535;52.192;9.886;2023-05-24T11:12:00;101270.19;;;10.86;97.12
13952;BME280;39535;52.192;9.886;2023-05-24T11:14:29;101278.09;;;10.69;98.05
13952;BME280;39535;52.192;9.886;2023-05-24T11:16:56;101248.56;;;10.61;100.00
13952;BME280;39535;52.192;9.886;2023-05-24T11:19:29;101210.16;;;10.79;100.00
13952;BME280;39535;52.192;9.886;2023-05-24T11:21:58;101149.25;;;10.75;100.00
13952;BME280;39535;52.192;9.886;2023-05-24T11:24:26;101092.88;;;10.49;100.00
13952;BME280;39535;52.192;9.886;2023-05-24T11:26:53;101033.00;;;10.29;100.00
13952;BME280;39535;52.192;9.886;2023-05-24T11:29:21;101000.69;;;10.47;100.00
13952;BME280;39535;52.192;9.886;2023-05-24T11:31:48;100992.59;;;10.72;100.00
13952;BME280;39535;52.192;9.886;2023-05-24T11:34:15;101019.59;;;10.71;100.00
13952;BME280;39535;52.192;9.886;2023-05-24T11:36:43;101045.50;;;10.91;100.00
13952;BME280;39535;52.192;9.886;2023-05-24T11:39:11;101067.09;;;11.07;100.00
13952;BME280;39535;52.192;9.886;2023-05-24T11:41:38;101088.84;;;11.09;100.00
13952;BME280;39535;52.192;9.886;2023-05-24T11:44:07;101133.13;;;11.26;100.00
13952;BME280;39535;52.192;9.886;2023-05-24T11:46:34;101147.78;;;11.38;100.00
13952;BME280;39535;52.192;9.886;2023-05-24T11:49:00;101173.94;;;11.36;100.00
13952;BME280;39535;52.192;9.886;2023-05-24T11:51:28;101183.50;;;11.36;100.00
13952;BME280;39535;52.192;9.886;2023-05-24T11:53:55;101199.25;;;11.32;100.00
13952;BME280;39535;52.192;9.886;2023-05-24T11:56:23;101199.19;;;11.37;100.00
13952;BME280;39535;52.192;9.886;2023-05-24T11:58:58;101228.78;;;11.41;99.85
13952;BME280;39535;52.192;9.886;2023-05-24T12:01:28;101245.72;;;10.98;100.00
13952;BME280;39535;52.192;9.886;2023-05-24T12:03:54;101230.69;;;11.22;100.00
13952;BME280;39535;52.192;9.886;2023-05-24T12:06:21;101237.63;;;11.27;100.00
13952;BME280;39535;52.192;9.886;2023-05-24T12:08:48;101255.03;;;11.28;99.77
13952;BME280;39535;52.192;9.886;2023-05-24T12:11:15;101267.22;;;11.29;99.38
13952;BME280;39535;52.192;9.886;2023-05-24T12:13:43;101268.91;;;11.37;99.07
13952;BME280;39535;52.192;9.886;2023-05-24T12:16:10;101269.69;;;11.46;98.11
13952;BME280;39535;52.192;9.886;2023-05-24T12:18:38;101280.03;;;11.60;97.81
13952;BME280;39535;52.192;9.886;2023-05-24T12:21:08;101292.25;;;11.60;97.99
13952;BME280;39535;52.192;9.886;2023-05-24T12:23:35;101293.06;;;11.63;97.75
13952;BME280;39535;52.192;9.886;2023-05-24T12:26:02;101273.28;;;11.35;100.00
13952;BME280;39535;52.192;9.886;2023-05-24T12:28:31;101217.75;;;11.08;100.00
13952;BME280;39535;52.192;9.886;2023-05-24T12:31:01;101196.16;;;10.87;100.00
13952;BME280;39535;52.192;9.886;2023-05-24T12:33:29;101180.28;;;11.12;100.00
13952;BME280;39535;52.192;9.886;2023-05-24T12:35:57;101179.50;;;11.02;100.00
13952;BME280;39535;52.192;9.886;2023-05-24T12:38:24;101160.13;;;11.22;100.00
13952;BME280;39535;52.192;9.886;2023-05-24T12:40:50;101158.22;;;11.41;100.00
13952;BME280;39535;52.192;9.886;2023-05-24T12:43:18;101185.09;;;11.52;100.00
13952;BME280;39535;52.192;9.886;2023-05-24T12:45:45;101213.94;;;11.46;100.00
13952;BME280;39535;52.192;9.886;2023-05-24T12:48:13;101240.81;;;11.57;98.37
13952;BME280;39535;52.192;9.886;2023-05-24T12:50:39;101246.94;;;11.56;98.85
13952;BME280;39535;52.192;9.886;2023-05-24T12:53:05;101279.97;;;11.66;96.46
13952;BME280;39535;52.192;9.886;2023-05-24T12:55:32;101276.38;;;11.77;97.54